sensor_id;sensor_type;location;lat;lon;timestamp;temperature;humidity
32865;DHT22;19219;44.500;11.188;2022-10-18T00:00:34;14.80;99.90
32865;DHT22;19219;44.500;11.188;2022-10-18T00:03:00;14.80;99.90
32865;DHT22;19219;44.500;11.188;2022-10-18T00:05:25;14.80;99.90
32865;DHT22;19219;44.500;11.188;2022-10-18T00:07:51;14.80;99.90
32865;DHT22;19219;44.500;11.188;2022-10-18T00:10:16;14.80;99.90
32865;DHT22;19219;44.500;11.188;2022-10-18T00:12:42;14.80;99.90
32865;DHT22;19219;44.500;11.188;2022-10-18T00:15:09;14.90;99.90
32865;DHT22;19219;44.500;11.188;2022-10-18T00:17:36;14.90;99.90
32865;DHT22;19219;44.500;11.188;2022-10-18T00:20:04;14.90;99.90
32865;DHT22;19219;44.500;11.188;2022-10-18T00:22:30;14.90;99.90
32865;DHT22;19219;44.500;11.188;2022-10-18T00:24:57;14.80;99.90
32865;DHT22;19219;44.500;11.188;2022-10-18T00:27:23;14.80;99.90
32865;DHT22;19219;44.500;11.188;2022-10-18T00:29:51;14.80;99.90
32865;DHT22;19219;44.500;11.188;2022-10-18T00:32:17;14.70;99.90
32865;DHT22;19219;44.500;11.188;2022-10-18T00:34:43;14.70;99.90
32865;DHT22;19219;44.500;11.188;2022-10-18T00:37:08;14.80;99.90
32865;DHT22;19219;44.500;11.188;2022-10-18T00:39:34;14.80;99.90
32865;DHT22;19219;44.500;11.188;2022-10-18T00:42:00;14.80;99.90
32865;DHT22;19219;44.500;11.188;2022-10-18T00:46:59;14.80;99.90
32865;DHT22;19219;44.500;11.188;2022-10-18T00:49:32;14.70;99.90
32865;DHT22;19219;44.500;11.188;2022-10-18T00:51:59;14.70;99.90
32865;DHT22;19219;44.500;11.188;2022-10-18T00:54:28;14.70;99.90
32865;DHT22;19219;44.500;11.188;2022-10-18T00:56:55;14.60;99.90
32865;DHT22;19219;44.500;11.188;2022-10-18T00:59:20;14.60;99.90
32865;DHT22;19219;44.500;11.188;2022-10-18T01:01:46;14.50;99.90
32865;DHT22;19219;44.500;11.188;2022-10-18T01:04:15;14.50;99.90
32865;DHT22;19219;44.500;11.188;2022-10-18T01:09:30;14.50;99.90
32865;DHT22;19219;44.500;11.188;2022-10-18T01:15:04;14.60;99.90
32865;DHT22;19219;44.500;11.188;2022-10-18T01:26:14;14.70;99.90
32865;DHT22;19219;44.500;11.188;2022-10-18T01:28:43;14.70;99.90
32865;DHT22;19219;44.500;11.188;2022-10-18T01:31:22;14.70;99.90
32865;DHT22;19219;44.500;11.188;2022-10-18T01:33:57;14.80;99.90
32865;DHT22;19219;44.500;11.188;2022-10-18T01:36:33;14.80;99.90
32865;DHT22;19219;44.500;11.188;2022-10-18T01:39:03;14.80;99.90
32865;DHT22;19219;44.500;11.188;2022-10-18T01:41:30;14.90;99.90
32865;DHT22;19219;44.500;11.188;2022-10-18T01:43:59;14.90;99.90
32865;DHT22;19219;44.500;11.188;2022-10-18T01:46:25;15.00;99.90
32865;DHT22;19219;44.500;11.188;2022-10-18T01:48:53;15.00;99.90
32865;DHT22;19219;44.500;11.188;2022-10-18T01:51:24;15.10;99.90
32865;DHT22;19219;44.500;11.188;2022-10-18T01:53:50;15.00;99.90
32865;DHT22;19219;44.500;11.188;2022-10-18T02:04:43;15.00;99.90
32865;DHT22;19219;44.500;11.188;2022-10-18T02:09:40;14.90;99.90
32865;DHT22;19219;44.500;11.188;2022-10-18T02:12:09;14.80;99.90
32865;DHT22;19219;44.500;11.188;2022-10-18T02:14:37;14.70;99.90
32865;DHT22;19219;44.500;11.188;2022-10-18T02:17:05;14.70;99.90
32865;DHT22;19219;44.500;11.188;2022-10-18T02:19:39;14.70;99.90
32865;DHT22;19219;44.500;11.188;2022-10-18T02:22:07;14.70;99.90
32865;DHT22;19219;44.500;11.188;2022-10-18T02:24:37;14.60;99.90
32865;DHT22;19219;44.500;11.188;2022-10-18T02:27:04;14.50;99.90
32865;DHT22;19219;44.500;11.188;2022-10-18T02:29:30;14.50;99.90
32865;DHT22;19219;44.500;11.188;2022-10-18T02:32:08;14.60;99.90
32865;DHT22;19219;44.500;11.188;2022-10-18T02:35:27;14.60;99.90
32865;DHT22;19219;44.500;11.188;2022-10-18T02:37:37;14.50;99.90
32865;DHT22;19219;44.500;11.188;2022-10-18T02:40:05;14.50;99.90
32865;DHT22;19219;44.500;11.188;2022-10-18T02:42:36;14.50;99.90
32865;DHT22;19219;44.500;11.188;2022-10-18T02:45:03;14.50;99.90
32865;DHT22;19219;44.500;11.188;2022-10-18T02:47:30;14.40;99.90
32865;DHT22;19219;44.500;11.188;2022-10-18T02:49:56;14.40;99.90
32865;DHT22;19219;44.500;11.188;2022-10-18T02:52:21;14.40;99.90
32865;DHT22;19219;44.500;11.188;2022-10-18T02:54:47;14.30;99.90
32865;DHT22;19219;44.500;11.188;2022-10-18T02:57:13;14.20;99.90
32865;DHT22;19219;44.500;11.188;2022-10-18T02:59:38;14.20;99.90
32865;DHT22;19219;44.500;11.188;2022-10-18T03:02:04;14.20;99.90
32865;DHT22;19219;44.500;11.188;2022-10-18T03:04:29;14.20;99.90
32865;DHT22;19219;44.500;11.188;2022-10-18T03:06:55;14.20;99.90
32865;DHT22;19219;44.500;11.188;2022-10-18T03:09:21;14.30;99.90
32865;DHT22;19219;44.500;11.188;2022-10-18T03:11:46;14.40;99.90
32865;DHT22;19219;44.500;11.188;2022-10-18T03:14:12;14.40;99.90
32865;DHT22;19219;44.500;11.188;2022-10-18T03:16:38;14.40;99.90
32865;DHT22;19219;44.500;11.188;2022-10-18T03:19:04;14.30;99.90
32865;DHT22;19219;44.500;11.188;2022-10-18T03:21:29;14.30;99.90
32865;DHT22;19219;44.500;11.188;2022-10-18T03:23:55;14.40;99.90
32865;DHT22;19219;44.500;11.188;2022-10-18T03:26:22;14.30;99.90
32865;DHT22;19219;44.500;11.188;2022-10-18T03:28:48;14.20;99.90
32865;DHT22;19219;44.500;11.188;2022-10-18T03:31:14;14.20;99.90
32865;DHT22;19219;44.500;11.188;2022-10-18T03:33:39;14.20;99.90
32865;DHT22;19219;44.500;11.188;2022-10-18T03:36:05;14.20;99.90
32865;DHT22;19219;44.500;11.188;2022-10-18T03:38:31;14.20;99.90
32865;DHT22;19219;44.500;11.188;2022-10-18T03:40:56;14.10;99.90
32865;DHT22;19219;44.500;11.188;2022-10-18T03:43:22;14.10;99.90
32865;DHT22;19219;44.500;11.188;2022-10-18T03:45:48;14.10;99.90
32865;DHT22;19219;44.500;11.188;2022-10-18T03:48:13;14.20;99.90
32865;DHT22;19219;44.500;11.188;2022-10-18T03:50:39;14.20;99.90
32865;DHT22;19219;44.500;11.188;2022-10-18T03:53:06;14.20;99.90
32865;DHT22;19219;44.500;11.188;2022-10-18T03:55:32;14.20;99.90
32865;DHT22;19219;44.500;11.188;2022-10-18T03:57:57;14.20;99.90
32865;DHT22;19219;44.500;11.188;2022-10-18T04:00:23;14.20;99.90
32865;DHT22;19219;44.500;11.188;2022-10-18T04:02:49;14.10;99.90
32865;DHT22;19219;44.500;11.188;2022-10-18T04:05:14;14.10;99.90
32865;DHT22;19219;44.500;11.188;2022-10-18T04:07:40;14.00;99.90
32865;DHT22;19219;44.500;11.188;2022-10-18T04:10:06;13.90;99.90
32865;DHT22;19219;44.500;11.188;2022-10-18T04:12:32;13.90;99.90
32865;DHT22;19219;44.500;11.188;2022-10-18T04:14:57;13.90;99.90
32865;DHT22;19219;44.500;11.188;2022-10-18T04:17:23;13.90;99.90
32865;DHT22;19219;44.500;11.188;2022-10-18T04:19:49;13.90;99.90
32865;DHT22;19219;44.500;11.188;2022-10-18T04:22:14;13.80;99.90
32865;DHT22;19219;44.500;11.188;2022-10-18T04:24:40;13.80;99.90
32865;DHT22;19219;44.500;11.188;2022-10-18T04:27:06;13.70;99.90
32865;DHT22;19219;44.500;11.188;2022-10-18T04:29:32;13.70;99.90
32865;DHT22;19219;44.500;11.188;2022-10-18T04:31:58;13.70;99.90
32865;DHT22;19219;44.500;11.188;2022-10-18T04:34:23;13.70;99.90
32865;DHT22;19219;44.500;11.188;2022-10-18T04:36:49;13.70;99.90
32865;DHT22;19219;44.500;11.188;2022-10-18T04:39:15;13.70;99.90
32865;DHT22;19219;44.500;11.188;2022-10-18T04:41:41;13.70;99.90
32865;DHT22;19219;44.500;11.188;2022-10-18T04:44:07;13.70;99.90
32865;DHT22;19219;44.500;11.188;2022-10-18T04:46:32;13.70;99.90
32865;DHT22;19219;44.500;11.188;2022-10-18T04:48:58;13.70;99.90
32865;DHT22;19219;44.500;11.188;2022-10-18T04:51:28;13.70;99.90
32865;DHT22;19219;44.500;11.188;2022-10-18T04:53:55;13.60;99.90
32865;DHT22;19219;44.500;11.188;2022-10-18T04:56:21;13.60;99.90
32865;DHT22;19219;44.500;11.188;2022-10-18T04:58:46;13.50;99.90
32865;DHT22;19219;44.500;11.188;2022-10-18T05:01:12;13.50;99.90
32865;DHT22;19219;44.500;11.188;2022-10-18T05:03:38;13.40;99.90
32865;DHT22;19219;44.500;11.188;2022-10-18T05:06:04;13.40;99.90
32865;DHT22;19219;44.500;11.188;2022-10-18T05:08:33;13.40;99.90
32865;DHT22;19219;44.500;11.188;2022-10-18T05:10:59;13.40;99.90
32865;DHT22;19219;44.500;11.188;2022-10-18T05:13:25;13.50;99.90
32865;DHT22;19219;44.500;11.188;2022-10-18T05:15:51;13.50;99.90
32865;DHT22;19219;44.500;11.188;2022-10-18T05:18:17;13.50;99.90
32865;DHT22;19219;44.500;11.188;2022-10-18T05:20:42;13.50;99.90
32865;DHT22;19219;44.500;11.188;2022-10-18T05:23:08;13.60;99.90
32865;DHT22;19219;44.500;11.188;2022-10-18T05:25:38;13.50;99.90
32865;DHT22;19219;44.500;11.188;2022-10-18T05:28:04;13.50;99.90
32865;DHT22;19219;44.500;11.188;2022-10-18T05:30:30;13.50;99.90
32865;DHT22;19219;44.500;11.188;2022-10-18T05:32:55;13.60;99.90
32865;DHT22;19219;44.500;11.188;2022-10-18T05:35:21;13.70;99.90
32865;DHT22;19219;44.500;11.188;2022-10-18T05:37:46;13.70;99.90
32865;DHT22;19219;44.500;11.188;2022-10-18T05:40:12;13.70;99.90
32865;DHT22;19219;44.500;11.188;2022-10-18T05:42:38;13.70;99.90
32865;DHT22;19219;44.500;11.188;2022-10-18T05:45:03;13.80;99.90
32865;DHT22;19219;44.500;11.188;2022-10-18T05:47:29;13.90;99.90
32865;DHT22;19219;44.500;11.188;2022-10-18T05:49:55;13.90;99.90
32865;DHT22;19219;44.500;11.188;2022-10-18T05:52:20;13.90;99.90
32865;DHT22;19219;44.500;11.188;2022-10-18T05:54:46;13.90;99.90
32865;DHT22;19219;44.500;11.188;2022-10-18T05:57:13;13.80;99.90
32865;DHT22;19219;44.500;11.188;2022-10-18T05:59:39;13.80;99.90
32865;DHT22;19219;44.500;11.188;2022-10-18T06:02:04;13.70;99.90
32865;DHT22;19219;44.500;11.188;2022-10-18T06:04:30;13.80;99.90
32865;DHT22;19219;44.500;11.188;2022-10-18T06:06:56;13.80;99.90
32865;DHT22;19219;44.500;11.188;2022-10-18T06:09:22;13.80;99.90
32865;DHT22;19219;44.500;11.188;2022-10-18T06:11:47;13.80;99.90
32865;DHT22;19219;44.500;11.188;2022-10-18T06:14:13;13.80;99.90
32865;DHT22;19219;44.500;11.188;2022-10-18T06:16:39;13.90;99.90
32865;DHT22;19219;44.500;11.188;2022-10-18T06:19:04;14.00;99.90
32865;DHT22;19219;44.500;11.188;2022-10-18T06:21:30;14.10;99.90
32865;DHT22;19219;44.500;11.188;2022-10-18T06:23:57;14.20;99.90
32865;DHT22;19219;44.500;11.188;2022-10-18T06:26:24;14.30;99.90
32865;DHT22;19219;44.500;11.188;2022-10-18T06:28:50;14.30;99.90
32865;DHT22;19219;44.500;11.188;2022-10-18T06:31:16;14.40;99.90
32865;DHT22;19219;44.500;11.188;2022-10-18T06:33:42;14.40;99.90
32865;DHT22;19219;44.500;11.188;2022-10-18T06:36:15;14.50;99.90
32865;DHT22;19219;44.500;11.188;2022-10-18T06:38:41;14.50;99.90
32865;DHT22;19219;44.500;11.188;2022-10-18T06:41:06;14.60;99.90
32865;DHT22;19219;44.500;11.188;2022-10-18T06:43:33;14.60;99.90
32865;DHT22;19219;44.500;11.188;2022-10-18T06:46:00;14.70;99.90
32865;DHT22;19219;44.500;11.188;2022-10-18T06:48:28;14.80;99.90
32865;DHT22;19219;44.500;11.188;2022-10-18T06:50:57;14.90;99.90
32865;DHT22;19219;44.500;11.188;2022-10-18T06:53:25;15.10;99.90
32865;DHT22;19219;44.500;11.188;2022-10-18T06:55:51;15.20;99.90
32865;DHT22;19219;44.500;11.188;2022-10-18T06:58:17;15.30;99.90
32865;DHT22;19219;44.500;11.188;2022-10-18T07:00:43;15.40;99.90
32865;DHT22;19219;44.500;11.188;2022-10-18T07:03:10;15.50;99.90
32865;DHT22;19219;44.500;11.188;2022-10-18T07:05:36;15.70;99.90
32865;DHT22;19219;44.500;11.188;2022-10-18T07:08:02;15.80;99.90
32865;DHT22;19219;44.500;11.188;2022-10-18T07:10:28;16.00;99.90
32865;DHT22;19219;44.500;11.188;2022-10-18T07:12:54;16.20;99.90
32865;DHT22;19219;44.500;11.188;2022-10-18T07:15:20;16.40;99.90
32865;DHT22;19219;44.500;11.188;2022-10-18T07:17:48;16.60;99.90
32865;DHT22;19219;44.500;11.188;2022-10-18T07:20:14;16.80;99.90
32865;DHT22;19219;44.500;11.188;2022-10-18T07:22:40;17.10;99.90
32865;DHT22;19219;44.500;11.188;2022-10-18T07:25:06;17.40;99.90
32865;DHT22;19219;44.500;11.188;2022-10-18T07:27:44;17.50;99.90
32865;DHT22;19219;44.500;11.188;2022-10-18T07:30:10;17.80;99.90
32865;DHT22;19219;44.500;11.188;2022-10-18T07:32:36;18.10;99.90
32865;DHT22;19219;44.500;11.188;2022-10-18T07:35:03;18.50;99.90
32865;DHT22;19219;44.500;11.188;2022-10-18T07:37:28;18.80;99.90
32865;DHT22;19219;44.500;11.188;2022-10-18T07:39:54;19.10;99.90
32865;DHT22;19219;44.500;11.188;2022-10-18T07:42:20;19.30;99.90
32865;DHT22;19219;44.500;11.188;2022-10-18T07:44:45;19.60;99.90
32865;DHT22;19219;44.500;11.188;2022-10-18T07:47:11;19.80;99.90
32865;DHT22;19219;44.500;11.188;2022-10-18T07:49:37;20.10;99.90
32865;DHT22;19219;44.500;11.188;2022-10-18T07:52:02;20.40;99.90
32865;DHT22;19219;44.500;11.188;2022-10-18T07:54:28;20.60;99.90
32865;DHT22;19219;44.500;11.188;2022-10-18T07:56:54;20.90;99.90
32865;DHT22;19219;44.500;11.188;2022-10-18T07:59:20;21.00;99.90
32865;DHT22;19219;44.500;11.188;2022-10-18T08:01:46;21.30;99.90
32865;DHT22;19219;44.500;11.188;2022-10-18T08:04:11;21.50;99.90
32865;DHT22;19219;44.500;11.188;2022-10-18T08:06:37;21.80;99.90
32865;DHT22;19219;44.500;11.188;2022-10-18T08:09:03;21.80;99.90
32865;DHT22;19219;44.500;11.188;2022-10-18T08:11:29;22.10;99.90
32865;DHT22;19219;44.500;11.188;2022-10-18T08:13:54;22.20;99.90
32865;DHT22;19219;44.500;11.188;2022-10-18T08:16:23;22.50;99.90
32865;DHT22;19219;44.500;11.188;2022-10-18T08:18:49;22.50;99.90
32865;DHT22;19219;44.500;11.188;2022-10-18T08:21:16;22.70;99.90
32865;DHT22;19219;44.500;11.188;2022-10-18T08:23:42;22.90;99.90
32865;DHT22;19219;44.500;11.188;2022-10-18T08:26:10;23.00;99.90
32865;DHT22;19219;44.500;11.188;2022-10-18T08:28:36;23.00;99.90
32865;DHT22;19219;44.500;11.188;2022-10-18T08:31:06;23.10;99.90
32865;DHT22;19219;44.500;11.188;2022-10-18T08:33:33;23.40;99.90
32865;DHT22;19219;44.500;11.188;2022-10-18T08:36:02;23.60;99.90
32865;DHT22;19219;44.500;11.188;2022-10-18T08:38:31;23.70;99.90
32865;DHT22;19219;44.500;11.188;2022-10-18T08:41:05;23.70;99.90
32865;DHT22;19219;44.500;11.188;2022-10-18T08:43:43;23.70;99.90
32865;DHT22;19219;44.500;11.188;2022-10-18T08:46:11;23.90;99.90
32865;DHT22;19219;44.500;11.188;2022-10-18T08:48:41;24.00;99.90
32865;DHT22;19219;44.500;11.188;2022-10-18T08:51:25;24.00;99.90
32865;DHT22;19219;44.500;11.188;2022-10-18T08:54:11;23.90;99.90
32865;DHT22;19219;44.500;11.188;2022-10-18T08:56:46;24.20;99.90
32865;DHT22;19219;44.500;11.188;2022-10-18T08:59:16;24.30;99.90
32865;DHT22;19219;44.500;11.188;2022-10-18T09:15:58;24.80;99.90
32865;DHT22;19219;44.500;11.188;2022-10-18T09:21:04;24.80;99.90
32865;DHT22;19219;44.500;11.188;2022-10-18T09:23:46;24.90;99.90
32865;DHT22;19219;44.500;11.188;2022-10-18T09:26:16;24.90;99.90
32865;DHT22;19219;44.500;11.188;2022-10-18T09:31:36;25.40;99.90
32865;DHT22;19219;44.500;11.188;2022-10-18T09:34:13;25.70;99.90
32865;DHT22;19219;44.500;11.188;2022-10-18T09:36:44;25.80;99.90
32865;DHT22;19219;44.500;11.188;2022-10-18T09:39:13;26.00;99.90
32865;DHT22;19219;44.500;11.188;2022-10-18T09:44:50;26.00;99.90
32865;DHT22;19219;44.500;11.188;2022-10-18T09:47:19;25.80;99.90
32865;DHT22;19219;44.500;11.188;2022-10-18T09:49:58;25.70;99.90
32865;DHT22;19219;44.500;11.188;2022-10-18T09:52:50;25.80;99.90
32865;DHT22;19219;44.500;11.188;2022-10-18T09:55:25;25.80;99.90
32865;DHT22;19219;44.500;11.188;2022-10-18T09:57:56;26.00;99.90
32865;DHT22;19219;44.500;11.188;2022-10-18T10:00:30;26.20;99.90
32865;DHT22;19219;44.500;11.188;2022-10-18T10:02:58;26.10;99.90
32865;DHT22;19219;44.500;11.188;2022-10-18T10:05:24;26.10;99.90
32865;DHT22;19219;44.500;11.188;2022-10-18T10:07:57;26.20;99.90
32865;DHT22;19219;44.500;11.188;2022-10-18T10:10:25;26.30;99.90
32865;DHT22;19219;44.500;11.188;2022-10-18T10:13:17;26.40;99.90
32865;DHT22;19219;44.500;11.188;2022-10-18T10:15:55;26.40;99.90
32865;DHT22;19219;44.500;11.188;2022-10-18T10:18:24;26.40;99.90
32865;DHT22;19219;44.500;11.188;2022-10-18T10:25:54;26.30;99.90
32865;DHT22;19219;44.500;11.188;2022-10-18T10:28:23;26.30;99.90
32865;DHT22;19219;44.500;11.188;2022-10-18T10:30:50;26.30;99.90
32865;DHT22;19219;44.500;11.188;2022-10-18T10:33:37;26.30;99.90
32865;DHT22;19219;44.500;11.188;2022-10-18T10:36:05;26.40;99.90
32865;DHT22;19219;44.500;11.188;2022-10-18T10:38:39;26.40;99.90
32865;DHT22;19219;44.500;11.188;2022-10-18T10:41:19;26.30;99.90
32865;DHT22;19219;44.500;11.188;2022-10-18T10:43:45;26.10;99.90
32865;DHT22;19219;44.500;11.188;2022-10-18T10:46:12;26.10;99.90
32865;DHT22;19219;44.500;11.188;2022-10-18T10:48:58;26.20;99.90
32865;DHT22;19219;44.500;11.188;2022-10-18T10:51:36;25.90;99.90
32865;DHT22;19219;44.500;11.188;2022-10-18T10:54:14;25.60;99.90
32865;DHT22;19219;44.500;11.188;2022-10-18T10:57:14;25.60;99.90
32865;DHT22;19219;44.500;11.188;2022-10-18T10:59:52;25.70;99.90
32865;DHT22;19219;44.500;11.188;2022-10-18T11:02:28;25.70;99.90
32865;DHT22;19219;44.500;11.188;2022-10-18T11:04:56;25.80;99.90
32865;DHT22;19219;44.500;11.188;2022-10-18T11:07:42;25.70;99.90
32865;DHT22;19219;44.500;11.188;2022-10-18T11:12:46;25.60;99.90
32865;DHT22;19219;44.500;11.188;2022-10-18T11:20:48;25.70;99.90
32865;DHT22;19219;44.500;11.188;2022-10-18T11:23:16;25.70;99.90
32865;DHT22;19219;44.500;11.188;2022-10-18T11:34:49;25.80;99.90
32865;DHT22;19219;44.500;11.188;2022-10-18T11:42:45;25.50;99.90
32865;DHT22;19219;44.500;11.188;2022-10-18T11:45:48;25.30;99.90
32865;DHT22;19219;44.500;11.188;2022-10-18T11:56:49;25.30;99.90
32865;DHT22;19219;44.500;11.188;2022-10-18T12:02:32;25.20;99.90
32865;DHT22;19219;44.500;11.188;2022-10-18T12:05:06;25.20;99.90
32865;DHT22;19219;44.500;11.188;2022-10-18T12:07:37;25.20;99.90
32865;DHT22;19219;44.500;11.188;2022-10-18T12:10:06;25.20;99.90
32865;DHT22;19219;44.500;11.188;2022-10-18T12:12:51;25.30;99.90
32865;DHT22;19219;44.500;11.188;2022-10-18T12:15:22;25.30;99.90
32865;DHT22;19219;44.500;11.188;2022-10-18T12:17:58;25.30;99.90
32865;DHT22;19219;44.500;11.188;2022-10-18T12:20:32;25.40;99.90
32865;DHT22;19219;44.500;11.188;2022-10-18T12:25:31;25.30;99.90
32865;DHT22;19219;44.500;11.188;2022-10-18T12:30:46;25.00;99.90
32865;DHT22;19219;44.500;11.188;2022-10-18T12:33:20;25.00;99.90
32865;DHT22;19219;44.500;11.188;2022-10-18T12:38:34;25.00;99.90
32865;DHT22;19219;44.500;11.188;2022-10-18T12:41:01;25.10;99.90
32865;DHT22;19219;44.500;11.188;2022-10-18T12:43:29;25.10;99.90
32865;DHT22;19219;44.500;11.188;2022-10-18T12:46:06;25.20;99.90
32865;DHT22;19219;44.500;11.188;2022-10-18T12:48:40;25.10;99.90
32865;DHT22;19219;44.500;11.188;2022-10-18T12:51:20;25.00;99.90
32865;DHT22;19219;44.500;11.188;2022-10-18T12:53:51;25.00;99.90
32865;DHT22;19219;44.500;11.188;2022-10-18T13:09:37;25.30;99.90
32865;DHT22;19219;44.500;11.188;2022-10-18T13:20:22;25.20;99.90
32865;DHT22;19219;44.500;11.188;2022-10-18T13:28:38;25.20;99.90
32865;DHT22;19219;44.500;11.188;2022-10-18T13:31:38;25.20;99.90
32865;DHT22;19219;44.500;11.188;2022-10-18T13:34:26;25.30;99.90
32865;DHT22;19219;44.500;11.188;2022-10-18T13:39:41;25.20;99.90
32865;DHT22;19219;44.500;11.188;2022-10-18T13:44:39;25.30;99.90
32865;DHT22;19219;44.500;11.188;2022-10-18T13:47:11;25.30;99.90
32865;DHT22;19219;44.500;11.188;2022-10-18T14:08:48;25.40;99.90
32865;DHT22;19219;44.500;11.188;2022-10-18T14:11:40;25.50;99.90
32865;DHT22;19219;44.500;11.188;2022-10-18T14:19:35;25.40;99.90
32865;DHT22;19219;44.500;11.188;2022-10-18T14:24:45;25.20;99.90
32865;DHT22;19219;44.500;11.188;2022-10-18T14:27:27;25.20;99.90
32865;DHT22;19219;44.500;11.188;2022-10-18T14:30:25;25.20;99.90
32865;DHT22;19219;44.500;11.188;2022-10-18T14:32:52;25.20;99.90
32865;DHT22;19219;44.500;11.188;2022-10-18T14:37:47;25.10;99.90
32865;DHT22;19219;44.500;11.188;2022-10-18T14:40:36;25.20;99.90
32865;DHT22;19219;44.500;11.188;2022-10-18T14:43:18;25.00;99.90
32865;DHT22;19219;44.500;11.188;2022-10-18T14:45:44;25.00;99.90
32865;DHT22;19219;44.500;11.188;2022-10-18T14:48:20;25.00;99.90
32865;DHT22;19219;44.500;11.188;2022-10-18T14:50:54;25.00;99.90
32865;DHT22;19219;44.500;11.188;2022-10-18T14:53:24;25.00;99.90
32865;DHT22;19219;44.500;11.188;2022-10-18T14:55:54;25.10;99.90
32865;DHT22;19219;44.500;11.188;2022-10-18T14:58:21;25.00;99.90
32865;DHT22;19219;44.500;11.188;2022-10-18T15:00:47;25.00;99.90
32865;DHT22;19219;44.500;11.188;2022-10-18T15:03:15;25.00;99.90
32865;DHT22;19219;44.500;11.188;2022-10-18T15:05:56;24.90;99.90
32865;DHT22;19219;44.500;11.188;2022-10-18T15:08:26;24.80;99.90
32865;DHT22;19219;44.500;11.188;2022-10-18T15:10:55;24.80;99.90
32865;DHT22;19219;44.500;11.188;2022-10-18T15:13:21;24.80;99.90
32865;DHT22;19219;44.500;11.188;2022-10-18T15:15:48;24.80;99.90
32865;DHT22;19219;44.500;11.188;2022-10-18T15:18:24;24.80;99.90
32865;DHT22;19219;44.500;11.188;2022-10-18T15:23:41;24.70;99.90
32865;DHT22;19219;44.500;11.188;2022-10-18T15:26:12;24.70;99.90
32865;DHT22;19219;44.500;11.188;2022-10-18T15:28:44;24.60;99.90
32865;DHT22;19219;44.500;11.188;2022-10-18T15:31:23;24.50;99.90
32865;DHT22;19219;44.500;11.188;2022-10-18T15:33:49;24.50;99.90
32865;DHT22;19219;44.500;11.188;2022-10-18T15:36:28;24.40;99.90
32865;DHT22;19219;44.500;11.188;2022-10-18T15:39:15;24.50;99.90
32865;DHT22;19219;44.500;11.188;2022-10-18T15:41:53;24.40;99.90
32865;DHT22;19219;44.500;11.188;2022-10-18T15:44:23;24.30;99.90
32865;DHT22;19219;44.500;11.188;2022-10-18T15:46:51;24.30;99.90
32865;DHT22;19219;44.500;11.188;2022-10-18T15:55:00;23.80;99.90
32865;DHT22;19219;44.500;11.188;2022-10-18T15:57:29;23.70;99.90
32865;DHT22;19219;44.500;11.188;2022-10-18T15:59:59;23.60;99.90
32865;DHT22;19219;44.500;11.188;2022-10-18T16:02:27;23.50;99.90
32865;DHT22;19219;44.500;11.188;2022-10-18T16:04:53;23.40;99.90
32865;DHT22;19219;44.500;11.188;2022-10-18T16:07:18;23.20;99.90
32865;DHT22;19219;44.500;11.188;2022-10-18T16:09:44;23.10;99.90
32865;DHT22;19219;44.500;11.188;2022-10-18T16:12:10;22.90;99.90
32865;DHT22;19219;44.500;11.188;2022-10-18T16:14:35;22.80;99.90
32865;DHT22;19219;44.500;11.188;2022-10-18T16:17:04;22.60;99.90
32865;DHT22;19219;44.500;11.188;2022-10-18T16:19:31;22.50;99.90
32865;DHT22;19219;44.500;11.188;2022-10-18T16:22:01;22.30;99.90
32865;DHT22;19219;44.500;11.188;2022-10-18T16:24:27;22.10;99.90
32865;DHT22;19219;44.500;11.188;2022-10-18T16:26:52;22.00;99.90
32865;DHT22;19219;44.500;11.188;2022-10-18T16:29:21;21.90;99.90
32865;DHT22;19219;44.500;11.188;2022-10-18T16:31:50;21.80;99.90
32865;DHT22;19219;44.500;11.188;2022-10-18T16:34:18;21.80;99.90
32865;DHT22;19219;44.500;11.188;2022-10-18T16:36:46;21.70;99.90
32865;DHT22;19219;44.500;11.188;2022-10-18T16:39:17;21.60;99.90
32865;DHT22;19219;44.500;11.188;2022-10-18T16:41:43;21.50;99.90
32865;DHT22;19219;44.500;11.188;2022-10-18T16:44:09;21.50;99.90
32865;DHT22;19219;44.500;11.188;2022-10-18T16:46:35;21.30;99.90
32865;DHT22;19219;44.500;11.188;2022-10-18T16:49:01;21.20;99.90
32865;DHT22;19219;44.500;11.188;2022-10-18T16:51:27;21.20;99.90
32865;DHT22;19219;44.500;11.188;2022-10-18T16:53:53;21.10;99.90
32865;DHT22;19219;44.500;11.188;2022-10-18T16:56:28;20.90;99.90
32865;DHT22;19219;44.500;11.188;2022-10-18T16:58:55;20.80;99.90
32865;DHT22;19219;44.500;11.188;2022-10-18T17:01:22;20.80;99.90
32865;DHT22;19219;44.500;11.188;2022-10-18T17:03:49;20.70;99.90
32865;DHT22;19219;44.500;11.188;2022-10-18T17:06:28;20.60;99.90
32865;DHT22;19219;44.500;11.188;2022-10-18T17:08:55;20.50;99.90
32865;DHT22;19219;44.500;11.188;2022-10-18T17:11:23;20.40;99.90
32865;DHT22;19219;44.500;11.188;2022-10-18T17:13:49;20.40;99.90
32865;DHT22;19219;44.500;11.188;2022-10-18T17:16:28;20.30;99.90
32865;DHT22;19219;44.500;11.188;2022-10-18T17:18:56;20.20;99.90
32865;DHT22;19219;44.500;11.188;2022-10-18T17:21:23;20.10;99.90
32865;DHT22;19219;44.500;11.188;2022-10-18T17:23:49;20.10;99.90
32865;DHT22;19219;44.500;11.188;2022-10-18T17:26:20;20.00;99.90
32865;DHT22;19219;44.500;11.188;2022-10-18T17:28:54;19.90;99.90
32865;DHT22;19219;44.500;11.188;2022-10-18T17:31:21;19.90;99.90
32865;DHT22;19219;44.500;11.188;2022-10-18T17:33:47;19.80;99.90
32865;DHT22;19219;44.500;11.188;2022-10-18T17:36:13;19.70;99.90
32865;DHT22;19219;44.500;11.188;2022-10-18T17:38:39;19.70;99.90
32865;DHT22;19219;44.500;11.188;2022-10-18T17:41:08;19.60;99.90
32865;DHT22;19219;44.500;11.188;2022-10-18T17:43:38;19.50;99.90
32865;DHT22;19219;44.500;11.188;2022-10-18T17:46:04;19.40;99.90
32865;DHT22;19219;44.500;11.188;2022-10-18T17:48:30;19.40;99.90
32865;DHT22;19219;44.500;11.188;2022-10-18T17:50:56;19.30;99.90
32865;DHT22;19219;44.500;11.188;2022-10-18T17:53:22;19.20;99.90
32865;DHT22;19219;44.500;11.188;2022-10-18T17:56:00;19.10;99.90
32865;DHT22;19219;44.500;11.188;2022-10-18T17:58:26;19.00;99.90
32865;DHT22;19219;44.500;11.188;2022-10-18T18:00:52;18.90;99.90
32865;DHT22;19219;44.500;11.188;2022-10-18T18:03:18;18.80;99.90
32865;DHT22;19219;44.500;11.188;2022-10-18T18:05:44;18.80;99.90
32865;DHT22;19219;44.500;11.188;2022-10-18T18:08:11;18.80;99.90
32865;DHT22;19219;44.500;11.188;2022-10-18T18:10:37;18.70;99.90
32865;DHT22;19219;44.500;11.188;2022-10-18T18:13:03;18.60;99.90
32865;DHT22;19219;44.500;11.188;2022-10-18T18:15:28;18.60;99.90